ITY2334 EGKK-EDDH
Flight info
| Callsign | ITY2334 |
|---|---|
| Flight time | N/A |
| Altitude | 35000 |
| Route | FRANE1M FRANE M604 PAAVO Q295 SOMVA DCT MAVAS DCT PARYD DCT GASTU DCT OSTOR T904 RIBSO RIBSO3P |
| Aircraft | A21N/M-SDE2E3FGHIRWXY/LB1 |
Departure
| Time | 2026-05-03 20:15 |
|---|---|
| Airport | London Gatwick Airport (EGKK) |
Arrival
| Time | N/A |
|---|---|
| Airport | Hamburg Helmut Schmidt Airport (EDDH) |
| Time | Latitude | Longitude | Altitude | Speed | Heading |
|---|---|---|---|---|---|
| 2026-05-03 20:15 | 51.25304 | 0.07922 | 20645 ft | 265 kts | 93° |
| 2026-05-03 20:15 | 51.25353 | 0.10817 | 21024 ft | 267 kts | 93° |
| 2026-05-03 20:15 | 51.25408 | 0.13779 | 21389 ft | 268 kts | 93° |
| 2026-05-03 20:15 | 51.25469 | 0.16773 | 21765 ft | 270 kts | 93° |
| 2026-05-03 20:16 | 51.25531 | 0.19778 | 22125 ft | 272 kts | 93° |
| 2026-05-03 20:16 | 51.25602 | 0.22808 | 22474 ft | 274 kts | 93° |
| 2026-05-03 20:16 | 51.25679 | 0.25861 | 22832 ft | 276 kts | 93° |
| 2026-05-03 20:16 | 51.25759 | 0.28829 | 23168 ft | 277 kts | 93° |
| 2026-05-03 20:17 | 51.25846 | 0.31925 | 23500 ft | 279 kts | 93° |
| 2026-05-03 20:17 | 51.25937 | 0.35019 | 23792 ft | 280 kts | 93° |
| 2026-05-03 20:17 | 51.26032 | 0.38108 | 24070 ft | 281 kts | 93° |
| 2026-05-03 20:17 | 51.26131 | 0.41227 | 24341 ft | 282 kts | 93° |
| 2026-05-03 20:18 | 51.26231 | 0.44254 | 24597 ft | 283 kts | 93° |
| 2026-05-03 20:18 | 51.26335 | 0.47315 | 24845 ft | 284 kts | 93° |
| 2026-05-03 20:18 | 51.26436 | 0.50422 | 25123 ft | 282 kts | 93° |
| 2026-05-03 20:18 | 51.26529 | 0.53445 | 25338 ft | 283 kts | 93° |
| 2026-05-03 20:19 | 51.26628 | 0.56575 | 25562 ft | 284 kts | 93° |
| 2026-05-03 20:19 | 51.26731 | 0.59702 | 25788 ft | 285 kts | 93° |
| 2026-05-03 20:19 | 51.26833 | 0.62840 | 26001 ft | 286 kts | 93° |
| 2026-05-03 20:19 | 51.26935 | 0.65994 | 26216 ft | 287 kts | 94° |
| 2026-05-03 20:20 | 51.27189 | 0.69169 | 26389 ft | 296 kts | 77° |
| 2026-05-03 20:20 | 51.28230 | 0.72051 | 26562 ft | 307 kts | 50° |
| 2026-05-03 20:20 | 51.29974 | 0.74046 | 26711 ft | 312 kts | 22° |
| 2026-05-03 20:20 | 51.32086 | 0.74732 | 26857 ft | 311 kts | 355° |
| 2026-05-03 20:21 | 51.34167 | 0.73999 | 26862 ft | 306 kts | 328° |
| 2026-05-03 20:21 | 51.35824 | 0.72003 | 26904 ft | 295 kts | 302° |
| 2026-05-03 20:21 | 51.36736 | 0.69213 | 26941 ft | 282 kts | 276° |
| 2026-05-03 20:21 | 51.36778 | 0.66242 | 26979 ft | 270 kts | 250° |
| 2026-05-03 20:22 | 51.35975 | 0.63641 | 27015 ft | 262 kts | 225° |
| 2026-05-03 20:22 | 51.34560 | 0.61853 | 27073 ft | 262 kts | 208° |
| 2026-05-03 20:22 | 51.33028 | 0.60325 | 27133 ft | 265 kts | 220° |
| 2026-05-03 20:22 | 51.32005 | 0.57836 | 27291 ft | 276 kts | 245° |
| 2026-05-03 20:23 | 51.31787 | 0.54726 | 27392 ft | 290 kts | 270° |
| 2026-05-03 20:23 | 51.32447 | 0.51649 | 27473 ft | 307 kts | 294° |
| 2026-05-03 20:23 | 51.33927 | 0.49103 | 27475 ft | 322 kts | 319° |
| 2026-05-03 20:23 | 51.36004 | 0.47627 | 27588 ft | 334 kts | 343° |
| 2026-05-03 20:24 | 51.38337 | 0.47514 | 27647 ft | 341 kts | 8° |
| 2026-05-03 20:24 | 51.40564 | 0.48826 | 27674 ft | 343 kts | 33° |
| 2026-05-03 20:24 | 51.42295 | 0.51325 | 27734 ft | 338 kts | 58° |
| 2026-05-03 20:24 | 51.43295 | 0.54629 | 27806 ft | 327 kts | 82° |
| 2026-05-03 20:25 | 51.43408 | 0.58171 | 27862 ft | 311 kts | 107° |
| 2026-05-03 20:25 | 51.42660 | 0.61309 | 27943 ft | 297 kts | 128° |
| 2026-05-03 20:25 | 51.41829 | 0.64377 | 27994 ft | 310 kts | 109° |
| 2026-05-03 20:25 | 51.41814 | 0.67892 | 28072 ft | 325 kts | 84° |
| 2026-05-03 20:26 | 51.42689 | 0.71298 | 28125 ft | 338 kts | 60° |
| 2026-05-03 20:26 | 51.44316 | 0.73973 | 28180 ft | 345 kts | 36° |
| 2026-05-03 20:26 | 51.46525 | 0.75562 | 28225 ft | 347 kts | 11° |
| 2026-05-03 20:26 | 51.48876 | 0.75735 | 28297 ft | 342 kts | 347° |
| 2026-05-03 20:27 | 51.51101 | 0.74552 | 28350 ft | 334 kts | 328° |
| 2026-05-03 20:27 | 51.55313 | 0.71369 | 28455 ft | 341 kts | 341° |
| 2026-05-03 20:27 | 51.57676 | 0.70868 | 28521 ft | 346 kts | 356° |
| 2026-05-03 20:28 | 51.60048 | 0.71118 | 28590 ft | 348 kts | 6° |
| 2026-05-03 20:28 | 51.64789 | 0.72660 | 28697 ft | 350 kts | 12° |
| 2026-05-03 20:29 | 51.68728 | 0.74213 | 28788 ft | 351 kts | 13° |
| 2026-05-03 20:29 | 51.73482 | 0.76072 | 28885 ft | 352 kts | 12° |
| 2026-05-03 20:30 | 51.78161 | 0.77208 | 28964 ft | 352 kts | 11° |
| 2026-05-03 20:30 | 51.80438 | 0.78452 | 29005 ft | 353 kts | 26° |
| 2026-05-03 20:30 | 51.82554 | 0.80460 | 29044 ft | 352 kts | 37° |
| 2026-05-03 20:31 | 51.86122 | 0.85632 | 29117 ft | 348 kts | 58° |
| 2026-05-03 20:31 | 51.87299 | 0.89009 | 29162 ft | 341 kts | 73° |
| 2026-05-03 20:31 | 51.88191 | 0.92560 | 29204 ft | 341 kts | 73° |
| 2026-05-03 20:32 | 51.90006 | 0.99656 | 29250 ft | 342 kts | 72° |
| 2026-05-03 20:32 | 51.91818 | 1.06717 | 29309 ft | 342 kts | 72° |
| 2026-05-03 20:33 | 51.95514 | 1.21212 | 29471 ft | 343 kts | 72° |
| 2026-05-03 20:34 | 51.97326 | 1.28356 | 29550 ft | 343 kts | 72° |
| 2026-05-03 20:34 | 51.99139 | 1.35529 | 29610 ft | 344 kts | 73° |
| 2026-05-03 20:35 | 52.00918 | 1.42588 | 29683 ft | 344 kts | 73° |
| 2026-05-03 20:35 | 52.02704 | 1.49703 | 29681 ft | 346 kts | 72° |
| 2026-05-03 20:36 | 52.04486 | 1.56826 | 30140 ft | 329 kts | 72° |
| 2026-05-03 20:36 | 52.05298 | 1.60034 | 30983 ft | 301 kts | 72° |
| 2026-05-03 20:36 | 52.06057 | 1.63000 | 31655 ft | 279 kts | 72° |
| 2026-05-03 20:36 | 52.06746 | 1.65670 | 32174 ft | 262 kts | 73° |
| 2026-05-03 20:37 | 52.07420 | 1.68264 | 32562 ft | 249 kts | 73° |
| 2026-05-03 20:37 | 52.08078 | 1.70788 | 32828 ft | 239 kts | 73° |
| 2026-05-03 20:37 | 52.08720 | 1.73259 | 32893 ft | 238 kts | 73° |
| 2026-05-03 20:37 | 52.09364 | 1.75780 | 32781 ft | 244 kts | 73° |